Terminal Aerodrome Forecast
Issued by NWS

Home | Current Version | Previous Version | Text Only | Print | Product List | Glossary On
Versions: 1 2 3 4 5 6 7 8 9 10 11 12 13
000
FTUS45 KRIW 241100
TAFRKS
TAF
KRKS 241128Z 2412/2512 24011KT P6SM SKC
     FM241700 25014KT P6SM SCT080 BKN200
     FM241900 26020G30KT P6SM BKN100
     FM250100 25014KT P6SM SCT100 BKN200
     FM250800 15008KT P6SM SCT100 BKN200=

USA.gov is the U.S. government's official web portal to all federal, state and local government web resources and services.